Time;durP1;ratioP1;P1;durP2;ratioP2;P2;SDS_P1;SDS_P2;PMS_P1;PMS_P2;Temp;Humidity;BMP_temperature;BMP_pressure;BME280_temperature;BME280_humidity;BME280_pressure;Samples;Min_cycle;Max_cycle;Signal;HPM_P1;HPM_P2
2022/12/15 00:39:02;;;;;;;34.03;18.23;;;-2.10;99.90;;;1.99;55.82;96378.09;5043670;28;20051;-57
2022/12/15 00:41:30;;;;;;;38.10;20.33;;;-2.00;99.90;;;2.05;55.70;96381.97;5043434;28;20244;-58
2022/12/15 00:43:58;;;;;;;30.33;17.57;;;-2.00;99.90;;;2.10;55.13;96390.28;5043071;28;20052;-58
2022/12/15 01:20:41;;;;;;;32.30;17.50;;;-1.90;99.90;;;2.13;54.77;96410.97;5042649;28;20229;-59
2022/12/15 01:23:01;;;;;;;35.33;18.03;;;-2.00;99.90;;;2.16;54.99;96414.16;5043029;28;20397;-59
2022/12/15 01:25:29;;;;;;;34.00;19.10;;;-1.90;99.90;;;2.21;55.36;96426.91;5043522;28;20045;-60
2022/12/15 01:27:57;;;;;;;38.50;18.47;;;-1.90;99.90;;;2.22;54.84;96425.91;5043455;28;20042;-59
2022/12/15 01:30:26;;;;;;;34.83;18.83;;;-1.80;99.90;;;2.25;54.64;96424.78;5041911;28;20079;-58
2022/12/15 01:32:54;;;;;;;35.30;18.47;;;-1.80;99.90;;;2.19;54.84;96425.34;5043507;28;20041;-59
2022/12/15 01:35:22;;;;;;;40.43;19.10;;;-1.90;99.90;;;2.20;54.80;96427.03;5043104;28;20076;-59
2022/12/15 01:37:49;;;;;;;37.37;18.60;;;-1.90;99.90;;;2.17;54.72;96426.34;5041788;28;20049;-59
2022/12/15 01:43:13;;;;;;;34.43;17.57;;;-2.00;99.90;;;2.09;55.36;96434.06;5043025;28;20056;-59
2022/12/15 01:45:50;;;;;;;34.63;18.13;;;-2.00;99.90;;;2.11;55.38;96440.03;5035698;28;20041;-59
2022/12/15 01:48:32;;;;;;;34.60;17.93;;;-2.00;99.90;;;2.08;54.73;96436.84;5041910;28;20355;-59
2022/12/15 01:51:29;;;;;;;32.80;18.27;;;-2.00;99.90;;;2.03;55.35;96436.41;5042528;28;20045;-59
2022/12/15 01:54:09;;;;;;;37.67;18.07;;;-2.00;99.90;;;2.08;55.48;96429.78;5037323;28;20058;-59
2022/12/15 01:56:54;;;;;;;41.07;19.03;;;-2.00;99.90;;;2.07;55.27;96435.16;5034981;28;20041;-59
2022/12/15 01:59:29;;;;;;;;;;;-2.00;99.90;;;1.97;55.11;96441.25;5043224;28;20166;-59
2022/12/15 02:01:57;;;;;;;36.03;17.63;;;-2.00;99.90;;;2.13;55.30;96438.09;5042441;28;19916;-58
2022/12/15 02:04:25;;;;;;;43.57;19.73;;;-1.90;99.90;;;2.19;55.43;96430.59;5041437;28;20352;-59
2022/12/15 02:06:53;;;;;;;40.13;20.83;;;-1.90;99.90;;;2.24;55.18;96425.78;5041677;28;20223;-59
2022/12/15 02:09:25;;;;;;;38.53;19.00;;;-1.70;99.90;;;2.25;55.27;96430.03;5042177;28;20041;-59
2022/12/15 02:12:34;;;;;;;33.43;18.70;;;-1.70;99.90;;;2.25;55.24;96435.28;5040812;28;20052;-58
2022/12/15 02:15:31;;;;;;;29.27;16.30;;;-1.70;99.90;;;2.22;55.19;96432.97;5036046;28;20251;-59
2022/12/15 02:18:27;;;;;;;35.17;18.13;;;-1.70;99.90;;;2.11;54.72;96437.41;5038072;28;20048;-59
2022/12/15 02:21:12;;;;;;;36.40;18.67;;;-1.90;99.90;;;2.07;55.44;96440.41;5035585;28;20049;-59
2022/12/15 02:24:53;;;;;;;39.07;19.17;;;-2.00;99.90;;;2.10;55.26;96445.41;5035122;28;20034;-59
2022/12/15 02:27:56;;;;;;;34.63;17.23;;;-1.90;99.90;;;2.15;55.00;96451.06;5018503;28;20137;-59
2022/12/15 02:33:59;;;;;;;42.67;19.03;;;-1.80;99.90;;;2.24;55.29;96444.16;5035381;28;20037;-59
2022/12/15 02:36:40;;;;;;;43.20;19.83;;;-1.80;99.90;;;2.26;55.20;96450.94;5057713;28;20041;-51
2022/12/15 02:39:11;;;;;;;37.83;20.07;;;-1.70;99.90;;;2.30;55.01;96446.22;5041065;28;20071;-49
2022/12/15 02:41:46;;;;;;;45.07;21.13;;;-1.70;99.90;;;2.35;54.51;96460.59;5032997;28;20049;-53
2022/12/15 02:44:32;;;;;;;44.90;20.30;;;-1.70;99.90;;;2.36;54.66;96457.03;5041982;28;20060;-50
2022/12/15 02:47:44;;;;;;;49.03;21.73;;;-1.60;99.90;;;2.39;55.35;96462.97;5041149;28;20213;-52
2022/12/15 02:51:02;;;;;;;44.00;20.23;;;-1.50;99.90;;;2.37;54.95;96463.09;5038304;28;20045;-54
2022/12/15 02:53:48;;;;;;;37.73;19.10;;;-1.50;99.90;;;2.41;55.27;96461.03;5040931;28;20041;-54
2022/12/15 02:56:44;;;;;;;37.37;18.40;;;-1.50;99.90;;;2.42;54.68;96468.75;5041913;28;20045;-53
2022/12/15 02:59:43;;;;;;;49.50;23.07;;;-1.60;99.90;;;2.43;54.87;96459.91;5040748;28;20052;-55
2022/12/15 03:02:13;;;;;;;42.37;21.07;;;-1.50;99.90;;;2.46;54.98;96458.78;5040520;28;20051;-52
2022/12/15 03:04:42;;;;;;;41.13;20.27;;;-1.50;99.90;;;2.50;54.60;96463.66;5040829;28;20041;-50
2022/12/15 03:07:10;;;;;;;35.13;17.30;;;-1.50;99.90;;;2.54;54.94;96456.31;5024363;28;20246;-53
2022/12/15 03:09:38;;;;;;;38.20;19.30;;;-1.40;99.90;;;2.55;54.78;96450.91;5034366;28;20053;-53
2022/12/15 03:12:06;;;;;;;53.27;23.33;;;-1.50;99.90;;;2.58;55.04;96455.06;5041291;28;20243;-52
2022/12/15 03:14:34;;;;;;;45.80;23.30;;;-1.40;99.90;;;2.59;54.76;96461.13;5041736;28;20038;-54
2022/12/15 03:17:03;;;;;;;38.07;20.53;;;-1.40;99.90;;;2.61;54.56;96467.09;5041764;28;20048;-54
2022/12/15 03:19:30;;;;;;;42.20;19.83;;;-1.40;99.90;;;2.63;54.63;96470.41;5040429;28;20374;-52
2022/12/15 03:21:58;;;;;;;36.80;19.20;;;-1.40;99.90;;;2.65;54.85;96465.84;5041162;28;20046;-50
2022/12/15 03:24:26;;;;;;;36.57;20.90;;;-1.30;99.90;;;2.66;54.46;96470.94;5041665;28;20037;-52
2022/12/15 03:26:54;;;;;;;35.33;19.37;;;-1.30;99.90;;;2.67;54.32;96480.47;5041575;28;20051;-52
2022/12/15 03:29:22;;;;;;;37.17;19.00;;;-1.30;99.90;;;2.66;54.50;96478.00;5041459;28;20054;-51
2022/12/15 03:31:50;;;;;;;36.00;19.33;;;-1.40;99.90;;;2.66;54.46;96478.00;5040138;28;20059;-55
2022/12/15 03:34:17;;;;;;;38.90;20.30;;;-1.40;99.90;;;2.66;54.79;96478.84;5040497;28;20275;-54
2022/12/15 03:36:45;;;;;;;38.07;19.43;;;-1.30;99.90;;;2.69;54.63;96488.22;5041349;28;20038;-52
2022/12/15 03:39:13;;;;;;;39.13;20.93;;;-1.30;99.90;;;2.71;54.74;96486.28;5040385;28;20045;-52
2022/12/15 03:41:41;;;;;;;37.87;21.67;;;-1.20;99.90;;;2.71;54.57;96495.00;5040433;28;20243;-52
2022/12/15 03:44:09;;;;;;;35.73;19.63;;;-1.20;99.90;;;2.72;54.44;96485.34;5041403;28;20259;-52
2022/12/15 03:46:37;;;;;;;38.00;19.97;;;-1.20;99.90;;;2.71;54.66;96476.59;5033599;28;20047;-54
2022/12/15 03:49:05;;;;;;;42.43;21.40;;;-1.20;99.90;;;2.73;54.41;96487.81;5040460;28;20041;-54
2022/12/15 03:51:33;;;;;;;42.77;21.30;;;-1.30;99.90;;;2.70;54.64;96498.59;5039890;28;20045;-53
2022/12/15 03:54:00;;;;;;;33.73;18.67;;;-1.30;99.90;;;2.69;54.44;96501.38;5040043;28;20046;-51
2022/12/15 03:56:28;;;;;;;35.80;20.70;;;-1.30;99.90;;;2.71;54.58;96513.38;5041415;28;20039;-50
2022/12/15 03:58:56;;;;;;;37.20;18.57;;;-1.30;99.90;;;2.69;54.57;96504.00;5041364;28;20037;-53
2022/12/15 04:01:30;;;;;;;43.50;21.50;;;-1.30;99.90;;;2.69;54.21;96502.19;5040924;28;20045;-52
2022/12/15 04:03:58;;;;;;;32.63;17.80;;;-1.30;99.90;;;2.71;54.14;96495.00;5041061;28;20041;-53
2022/12/15 04:06:29;;;;;;;35.50;19.37;;;-1.30;99.90;;;2.70;54.17;96509.13;5040983;28;20053;-52
2022/12/15 04:08:57;;;;;;;36.40;18.13;;;-1.30;99.90;;;2.71;54.39;96505.50;5040240;28;20051;-50
2022/12/15 04:11:25;;;;;;;38.07;20.60;;;-1.30;99.90;;;2.69;54.57;96504.81;5031477;28;20056;-50
2022/12/15 04:13:52;;;;;;;45.80;20.93;;;-1.30;99.90;;;2.69;54.06;96517.13;5040312;28;20040;-54
2022/12/15 04:16:20;;;;;;;41.27;20.47;;;-1.40;99.90;;;2.67;54.31;96526.97;5043761;28;20135;-52
2022/12/15 04:20:07;;;;;;;39.80;20.17;;;-1.40;99.90;;;2.69;54.48;96530.28;5043767;28;20044;-49
2022/12/15 04:21:39;;;;;;;40.73;22.17;;;-1.30;99.90;;;2.70;54.51;96535.41;5036414;28;20048;-49
2022/12/15 05:33:41;;;;;;;55.43;26.97;;;-1.40;99.90;;;2.60;54.56;96537.22;5035950;28;20046;-52
2022/12/15 05:36:09;;;;;;;48.03;24.90;;;-1.40;99.90;;;2.63;54.64;96520.31;5025923;28;20045;-53
2022/12/15 05:38:37;;;;;;;46.20;23.17;;;-1.40;99.90;;;2.64;54.85;96511.50;5041946;28;20045;-53
2022/12/15 05:41:05;;;;;;;52.17;24.90;;;-1.30;99.90;;;2.63;54.86;96522.94;5042825;28;20045;-54
2022/12/15 05:43:33;;;;;;;49.33;24.27;;;-1.40;99.90;;;2.65;54.54;96526.28;5041396;28;20045;-52
2022/12/15 05:46:04;;;;;;;52.67;27.40;;;-1.40;99.90;;;2.68;54.61;96534.72;5043057;28;20247;-52
2022/12/15 05:48:32;;;;;;;68.20;33.53;;;-1.40;99.90;;;2.68;54.61;96534.72;5042043;28;20042;-53
2022/12/15 05:51:09;;;;;;;52.20;27.77;;;-1.30;99.90;;;2.67;55.46;96540.09;5042641;28;20045;-53
2022/12/15 05:53:38;;;;;;;42.37;23.43;;;-1.30;99.90;;;2.71;54.88;96546.72;5033735;28;20067;-53
2022/12/15 05:56:12;;;;;;;45.13;23.83;;;-1.30;99.90;;;2.73;54.71;96550.91;5041659;28;20051;-52
2022/12/15 05:58:41;;;;;;;42.15;21.98;;;-1.30;99.90;;;2.73;55.00;96553.53;5041836;28;20047;-50
2022/12/15 06:01:15;;;;;;;45.23;22.63;;;-1.30;99.90;;;2.76;54.58;96541.91;5025490;28;20046;-52
2022/12/15 06:03:44;;;;;;;40.63;22.87;;;-1.30;99.90;;;2.75;54.59;96546.34;5041859;28;20053;-50
2022/12/15 06:06:12;;;;;;;49.33;22.50;;;-1.30;99.90;;;2.75;54.75;96543.72;5041809;28;20064;-51
2022/12/15 06:08:42;;;;;;;49.97;25.93;;;-1.20;99.90;;;2.76;54.81;96550.59;5043247;28;20053;-54
2022/12/15 06:11:14;;;;;;;54.80;25.47;;;-1.20;99.90;;;2.80;55.16;96555.59;5024795;28;20052;-53
2022/12/15 06:13:42;;;;;;;58.30;25.97;;;-1.20;99.90;;;2.81;54.65;96550.22;5041419;28;20048;-55
2022/12/15 06:16:16;;;;;;;52.77;25.03;;;-1.10;99.90;;;2.83;54.67;96542.16;5041171;28;20056;-51
2022/12/15 06:18:52;;;;;;;44.93;23.40;;;-1.10;99.90;;;2.84;54.42;96551.72;5035642;28;20044;-51
2022/12/15 06:21:24;;;;;;;44.57;21.87;;;-1.10;99.90;;;2.83;54.56;96558.78;5040939;28;20045;-51
2022/12/15 06:23:52;;;;;;;74.73;32.90;;;-1.20;99.90;;;2.78;54.38;96568.88;5042640;28;20045;-54
2022/12/15 06:26:29;;;;;;;64.80;29.47;;;-1.20;99.90;;;2.78;54.52;96575.94;5042426;28;20083;-53
2022/12/15 06:29:01;;;;;;;43.23;22.47;;;-1.30;99.90;;;2.75;54.33;96567.38;5041202;28;20045;-49
2022/12/15 06:31:31;;;;;;;42.17;20.43;;;-1.30;99.90;;;2.76;54.41;96578.69;5041850;28;20049;-52
2022/12/15 06:34:01;;;;;;;39.77;22.77;;;-1.30;99.90;;;2.77;54.52;96572.47;5041045;28;20252;-51
2022/12/15 06:36:29;;;;;;;44.70;24.63;;;-1.30;99.90;;;2.76;54.70;96569.00;5042027;28;20049;-55
2022/12/15 06:38:59;;;;;;;43.57;22.63;;;-1.20;99.90;;;2.77;54.82;96567.19;5040997;28;20037;-54
2022/12/15 06:41:31;;;;;;;43.77;23.53;;;-1.20;99.90;;;2.80;54.48;96561.69;5024377;28;20037;-53
2022/12/15 06:44:00;;;;;;;45.07;22.20;;;-1.20;99.90;;;2.82;54.68;96567.63;5040506;28;20049;-53
2022/12/15 06:46:30;;;;;;;52.33;27.27;;;-1.20;99.90;;;2.81;54.62;96563.34;5040526;28;20069;-53
2022/12/15 06:48:58;;;;;;;45.37;24.23;;;-1.20;99.90;;;2.85;54.96;96571.75;5040659;28;20051;-52
2022/12/15 06:51:27;;;;;;;52.43;26.90;;;-1.10;99.90;;;2.83;54.46;96566.66;5041585;28;20065;-54
2022/12/15 06:53:55;;;;;;;46.07;23.67;;;-1.10;99.90;;;2.85;54.43;96567.34;5040979;28;20045;-49
2022/12/15 06:56:27;;;;;;;41.33;20.50;;;-1.10;99.90;;;2.84;54.29;96570.13;5024036;28;20049;-50
2022/12/15 06:59:02;;;;;;;48.27;21.97;;;-1.20;99.90;;;2.85;54.49;96559.47;5040586;28;20041;-53
2022/12/15 07:01:31;;;;;;;47.33;22.53;;;-1.10;99.90;;;2.87;54.47;96560.16;5040197;28;20247;-54
2022/12/15 07:04:01;;;;;;;46.57;22.13;;;-1.10;99.90;;;2.87;54.76;96560.16;5040803;28;20247;-54
2022/12/15 07:06:37;;;;;;;38.20;20.70;;;-1.10;99.90;;;2.85;54.41;96559.47;5040620;28;20332;-53
2022/12/15 07:09:10;;;;;;;39.73;21.50;;;-1.10;99.90;;;2.87;54.85;96552.28;5040640;28;20067;-51
2022/12/15 07:11:39;;;;;;;44.60;21.70;;;-1.10;99.90;;;2.89;54.64;96547.72;5041337;28;20045;-54
2022/12/15 07:14:08;;;;;;;44.87;22.63;;;-1.10;99.90;;;2.90;54.41;96556.41;5041349;28;20055;-53
2022/12/15 07:16:36;;;;;;;43.43;21.07;;;-1.10;99.90;;;2.91;54.55;96560.72;5040342;28;20048;-52
2022/12/15 07:19:04;;;;;;;41.67;20.67;;;-1.10;99.90;;;2.88;54.28;96567.06;5041791;28;20267;-53
2022/12/15 07:21:31;;;;;;;44.40;20.87;;;-1.20;99.90;;;2.87;54.71;96580.34;5039812;28;20052;-54
2022/12/15 07:23:59;;;;;;;42.07;21.57;;;-1.20;99.90;;;2.86;54.74;96581.31;5041652;28;20044;-55
2022/12/15 07:26:29;;;;;;;36.63;20.30;;;-1.20;99.90;;;2.89;55.01;96576.63;5040223;28;20042;-55
2022/12/15 07:28:57;;;;;;;40.73;21.07;;;-1.20;99.90;;;2.91;54.52;96581.75;5041661;28;20247;-55
2022/12/15 07:31:25;;;;;;;42.73;20.93;;;-1.20;99.90;;;2.90;54.29;96573.00;5039934;28;20048;-56
2022/12/15 07:33:53;;;;;;;53.47;26.70;;;-1.10;99.90;;;2.93;54.85;96583.25;5041487;28;20045;-54
2022/12/15 07:36:21;;;;;;;47.30;23.33;;;-1.00;99.90;;;2.97;54.50;96583.81;5040428;28;20042;-54
2022/12/15 07:38:49;;;;;;;51.47;22.37;;;-1.00;99.90;;;2.95;54.79;96597.09;5040234;28;20045;-56
2022/12/15 07:41:19;;;;;;;53.70;27.20;;;-1.00;99.90;;;2.95;54.73;96594.47;5019991;28;20045;-50
2022/12/15 07:43:47;;;;;;;49.57;23.87;;;-1.00;99.90;;;2.98;54.46;96590.72;5041368;28;20071;-50
2022/12/15 07:46:16;;;;;;;40.87;22.00;;;-1.00;99.90;;;3.01;54.81;96594.88;5041281;28;20083;-54
2022/12/15 07:48:46;;;;;;;41.83;24.50;;;-0.90;99.90;;;3.01;54.51;96582.56;5040425;28;20045;-52
2022/12/15 07:51:19;;;;;;;51.00;25.17;;;-0.90;99.90;;;3.05;54.71;96583.13;5043639;28;20080;-54
2022/12/15 07:53:49;;;;;;;48.73;25.90;;;-0.90;99.90;;;3.08;54.45;96582.81;5028620;28;20052;-50
2022/12/15 07:56:19;;;;;;;52.40;26.70;;;-0.90;99.90;;;3.10;54.99;96580.88;5045145;28;20351;-52
2022/12/15 07:58:47;;;;;;;54.43;27.50;;;-0.90;99.90;;;3.11;54.69;96582.53;5045186;28;20047;-54
2022/12/15 08:01:15;;;;;;;52.73;26.50;;;-0.90;99.90;;;3.12;54.43;96587.69;5044771;28;20224;-51
2022/12/15 08:03:44;;;;;;;53.30;25.37;;;-0.90;99.90;;;3.12;54.50;96597.34;5043912;28;20041;-53
2022/12/15 08:06:14;;;;;;;51.37;24.57;;;-0.90;99.90;;;3.07;54.73;96596.94;5045654;28;20053;-52
2022/12/15 08:08:44;;;;;;;49.33;23.07;;;-0.90;99.90;;;3.09;54.71;96605.53;5043938;28;20052;-52
2022/12/15 08:11:21;;;;;;;54.80;25.80;;;-0.90;99.90;;;3.13;54.47;96615.63;5043196;28;20056;-54
2022/12/15 08:13:49;;;;;;;44.13;21.10;;;-0.90;99.90;;;3.14;54.62;96632.22;5043942;28;20053;-51
2022/12/15 08:16:37;;;;;;;85.47;43.77;;;-0.90;99.90;;;3.15;54.40;96629.47;5044871;28;20053;-54
2022/12/15 08:19:09;;;;;;;76.50;36.43;;;-0.90;99.90;;;3.19;54.41;96637.91;5045051;28;20055;-53
2022/12/15 08:21:39;;;;;;;47.87;26.57;;;-0.80;99.90;;;3.23;54.50;96633.19;5044291;28;20049;-52
2022/12/15 08:24:08;;;;;;;46.67;24.40;;;-0.70;99.90;;;3.27;54.49;96626.69;5044772;28;20356;-52
2022/12/15 08:26:37;;;;;;;47.67;23.70;;;-0.70;99.90;;;3.29;54.55;96624.75;5042873;28;20049;-49
2022/12/15 08:29:10;;;;;;;51.73;25.10;;;-0.70;99.90;;;3.33;54.44;96632.22;5043339;28;20048;-52
2022/12/15 08:31:57;;;;;;;54.90;27.27;;;-0.60;99.90;;;3.35;54.49;96640.81;5038027;28;20041;-50
2022/12/15 08:34:25;;;;;;;53.23;27.13;;;-0.60;99.90;;;3.38;54.85;96638.88;5044286;28;20255;-51
2022/12/15 08:36:54;;;;;;;45.77;23.90;;;-0.60;99.90;;;3.39;54.21;96643.97;5043164;28;20041;-51
2022/12/15 08:39:22;;;;;;;51.37;24.80;;;-0.60;99.90;;;3.40;54.38;96652.72;5044309;28;20045;-51
2022/12/15 08:41:50;;;;;;;42.93;22.87;;;-0.60;99.90;;;3.42;54.30;96642.88;5044221;28;20041;-52
2022/12/15 08:44:17;;;;;;;44.30;21.70;;;-0.60;99.90;;;3.44;54.55;96654.91;5044893;28;20045;-48
2022/12/15 08:46:45;;;;;;;58.30;24.63;;;-0.50;99.90;;;3.46;54.28;96652.97;5036425;28;20045;-49
2022/12/15 08:49:13;;;;;;;47.07;22.83;;;-0.40;99.90;;;3.50;54.49;96646.44;5043852;28;20063;-50
2022/12/15 08:51:49;;;;;;;55.90;24.37;;;-0.40;99.90;;;3.55;54.06;96656.56;5036136;28;20067;-53
2022/12/15 08:54:19;;;;;;;63.30;24.53;;;-0.40;99.90;;;3.53;54.39;96654.06;5043095;28;20055;-50
2022/12/15 08:56:46;;;;;;;55.27;24.93;;;-0.40;99.90;;;3.54;54.29;96662.78;5036203;28;20037;-51
2022/12/15 08:59:14;;;;;;;59.17;26.70;;;-0.40;99.90;;;3.55;54.41;96657.38;5042858;28;20052;-52
2022/12/15 09:01:42;;;;;;;75.60;27.77;;;-0.40;99.90;;;3.57;54.19;96652.00;5043120;28;20046;-50
2022/12/15 09:04:10;;;;;;;56.10;25.30;;;-0.40;99.90;;;3.60;54.30;96648.22;5050874;28;20050;-51
2022/12/15 09:06:38;;;;;;;42.93;23.77;;;-0.40;99.90;;;3.60;54.31;96654.31;5043769;28;20052;-55
2022/12/15 09:09:10;;;;;;;42.93;22.77;;;-0.40;99.90;;;3.63;54.65;96643.53;5043890;28;20055;-52
2022/12/15 09:11:38;;;;;;;45.00;22.23;;;-0.40;99.90;;;3.67;54.26;96638.81;5042280;28;20052;-51
2022/12/15 09:14:06;;;;;;;48.07;25.23;;;-0.40;99.90;;;3.66;54.45;96634.50;5034922;28;20244;-50
2022/12/15 09:16:34;;;;;;;43.83;23.47;;;-0.40;99.90;;;3.69;54.36;96647.38;5035936;28;20045;-51
2022/12/15 09:19:03;;;;;;;47.70;22.07;;;-0.30;99.90;;;3.71;54.16;96653.34;5038373;28;20037;-49
2022/12/15 09:21:31;;;;;;;51.70;27.10;;;-0.30;99.90;;;3.76;54.12;96661.63;5019548;28;20045;-52
2022/12/15 09:24:01;;;;;;;49.67;24.47;;;-0.30;99.90;;;3.78;54.28;96662.34;5036807;28;20037;-49
2022/12/15 09:26:33;;;;;;;48.87;22.80;;;-0.20;99.90;;;3.79;54.22;96663.97;5036105;28;20047;-52
2022/12/15 09:29:01;;;;;;;59.27;26.10;;;-0.20;99.90;;;3.79;54.07;96656.06;5034125;28;20334;-53
2022/12/15 09:31:35;;;;;;;44.17;23.30;;;-0.20;99.90;;;3.81;53.94;96648.88;5036260;28;20041;-50
2022/12/15 09:34:04;;;;;;;46.63;23.43;;;-0.20;99.90;;;3.83;54.08;96646.09;5037199;28;20053;-49
2022/12/15 09:36:32;;;;;;;48.30;24.57;;;-0.20;99.90;;;3.84;53.89;96642.47;5035929;28;20052;-51
2022/12/15 09:39:01;;;;;;;47.70;24.83;;;0.00;99.90;;;3.83;54.24;96643.47;5036859;28;20046;-48
2022/12/15 09:41:33;;;;;;;36.90;20.67;;;0.00;99.90;;;3.86;54.23;96637.91;5036073;28;20056;-50
2022/12/15 09:44:14;;;;;;;40.73;21.03;;;0.00;99.90;;;3.90;53.98;96644.56;5021172;28;20059;-49
2022/12/15 09:47:17;;;;;;;38.37;20.97;;;0.00;99.90;;;3.85;54.09;96641.50;5030662;28;20053;-53
2022/12/15 09:50:02;;;;;;;44.43;21.00;;;0.00;99.90;;;3.89;54.05;96651.59;5035434;28;20064;-48
2022/12/15 09:52:55;;;;;;;33.97;20.73;;;0.10;99.90;;;3.89;54.37;96648.16;5019857;28;20073;-49
2022/12/15 09:55:33;;;;;;;43.45;21.27;;;0.00;99.90;;;3.97;53.83;96640.34;5037236;28;20045;-51
2022/12/15 09:59:09;;;;;;;42.93;22.23;;;0.00;99.90;;;3.92;54.19;96648.69;5035489;28;20049;-50
2022/12/15 10:02:12;;;;;;;33.10;18.13;;;0.10;99.90;;;4.02;54.12;96647.84;5036055;28;20051;-53
2022/12/15 10:04:43;;;;;;;39.27;19.97;;;0.00;99.90;;;4.07;54.01;96643.78;5038060;28;20048;-51
2022/12/15 10:07:31;;;;;;;39.37;21.03;;;0.10;99.90;;;4.03;53.71;96637.16;5035278;28;20061;-51
2022/12/15 10:10:03;;;;;;;49.90;24.17;;;0.10;99.90;;;4.00;54.14;96644.53;5037102;28;20045;-51
2022/12/15 10:12:36;;;;;;;47.30;22.80;;;0.20;99.90;;;3.97;54.43;96650.06;5034361;28;20053;-54
2022/12/15 10:15:24;;;;;;;42.47;21.57;;;0.30;99.90;;;3.94;54.29;96649.38;5036352;28;20045;-53
2022/12/15 10:17:55;;;;;;;40.23;20.63;;;0.30;99.90;;;3.91;53.83;96649.66;5039592;28;20247;-51
2022/12/15 10:20:29;;;;;;;36.00;20.30;;;0.30;99.90;;;3.90;54.15;96653.28;5039537;28;20057;-55
2022/12/15 10:26:22;;;;;;;38.53;19.13;;;0.20;99.90;;;3.90;53.95;96650.66;5037491;28;20049;-49
2022/12/15 10:29:11;;;;;;;41.97;22.43;;;0.10;99.90;;;4.00;53.79;96661.16;5033872;28;20048;-54
2022/12/15 10:32:00;;;;;;;47.97;24.23;;;0.10;99.90;;;4.06;54.07;96667.63;5040547;28;20067;-53
2022/12/15 10:34:35;;;;;;;40.23;22.27;;;0.20;99.90;;;4.10;53.60;96654.03;5042365;28;20049;-54
2022/12/15 10:37:03;;;;;;;46.77;26.90;;;0.20;99.90;;;4.16;53.45;96646.53;5041262;28;20034;-53
2022/12/15 10:39:44;;;;;;;56.73;26.20;;;0.20;99.90;;;4.20;53.33;96638.19;5041752;28;20060;-53
2022/12/15 10:42:24;;;;;;;50.03;25.07;;;0.30;99.90;;;4.32;54.03;96625.63;5039806;28;20232;-51
2022/12/15 10:44:56;;;;;;;44.93;24.93;;;0.40;99.90;;;4.42;53.96;96610.63;5033094;28;20038;-51
2022/12/15 10:47:26;;;;;;;45.07;23.53;;;0.50;99.90;;;4.47;53.61;96596.97;5041074;28;20255;-50
2022/12/15 10:50:15;;;;;;;38.93;20.17;;;0.60;99.90;;;4.50;53.22;96578.25;5042317;28;20052;-50
2022/12/15 10:52:50;;;;;;;35.20;19.57;;;0.60;99.90;;;4.48;53.68;96569.66;5040762;28;20045;-53
2022/12/15 10:55:39;;;;;;;38.33;19.23;;;0.50;99.90;;;4.42;53.51;96567.59;5042367;28;20228;-53
2022/12/15 10:58:19;;;;;;;44.27;20.47;;;0.50;99.90;;;4.41;53.58;96561.50;5035032;28;20054;-51
2022/12/15 11:01:04;;;;;;;36.80;21.07;;;0.50;99.90;;;4.42;52.91;96552.63;5039611;28;20057;-52
2022/12/15 11:03:36;;;;;;;38.63;20.17;;;0.50;99.90;;;4.40;52.98;96570.41;5040619;28;20052;-49
2022/12/15 11:06:16;;;;;;;36.60;19.97;;;0.50;99.90;;;4.37;53.23;96573.31;5040876;28;20051;-52
2022/12/15 11:08:46;;;;;;;37.50;20.80;;;0.50;99.90;;;4.36;53.20;96595.38;5040546;28;20059;-51
2022/12/15 11:14:26;;;;;;;41.93;20.77;;;0.40;99.90;;;4.32;53.17;96584.31;5036461;28;20045;-51
2022/12/15 11:16:58;;;;;;;52.73;24.93;;;0.40;99.90;;;4.31;53.36;96585.28;5032661;28;20048;-54
2022/12/15 11:19:39;;;;;;;58.00;27.43;;;0.40;99.90;;;4.34;53.44;96589.41;5035153;28;20045;-48
2022/12/15 11:22:43;;;;;;;51.50;25.77;;;0.40;99.90;;;4.36;53.52;96595.38;5032697;28;20041;-48
2022/12/15 11:25:45;;;;;;;44.63;24.27;;;0.50;99.90;;;4.44;53.38;96587.56;5041572;28;20047;-51
2022/12/15 11:28:24;;;;;;;44.00;23.23;;;0.60;99.90;;;4.49;53.29;96587.13;5039589;28;20041;-49
2022/12/15 11:31:03;;;;;;;48.00;23.63;;;0.60;99.90;;;4.53;52.90;96586.66;5044137;28;20047;-51
2022/12/15 11:33:31;;;;;;;42.67;21.50;;;0.60;99.90;;;4.59;52.83;96593.16;5044581;28;20071;-50
2022/12/15 11:36:09;;;;;;;42.10;21.70;;;0.60;99.90;;;4.61;53.16;96582.47;5045813;28;20043;-54
2022/12/15 11:42:40;;;;;;;51.23;24.50;;;0.70;99.90;;;4.58;52.98;96586.22;5045267;28;20052;-51
2022/12/15 11:45:28;;;;;;;37.90;22.83;;;0.70;99.90;;;4.59;52.62;96584.41;5024135;28;20056;-49
2022/12/15 11:48:26;;;;;;;39.10;21.30;;;0.80;99.90;;;4.56;52.90;96566.28;5037718;28;20041;-51
2022/12/15 11:51:02;;;;;;;34.90;19.90;;;0.80;99.90;;;4.62;53.07;96542.78;5045144;28;20074;-51
2022/12/15 11:53:48;;;;;;;40.73;22.13;;;0.80;99.90;;;4.66;53.27;96543.31;5045228;28;20046;-52
2022/12/15 11:56:32;;;;;;;39.37;21.10;;;0.80;99.90;;;4.66;52.64;96538.84;5045376;28;20298;-49
2022/12/15 11:59:29;;;;;;;37.63;18.95;;;0.80;99.90;;;4.65;52.69;96541.63;5036904;28;20048;-50
2022/12/15 12:02:21;;;;;;;34.90;21.07;;;0.70;99.90;;;4.66;52.51;96546.75;5035809;28;20045;-52
2022/12/15 12:05:14;;;;;;;37.87;20.67;;;0.70;99.90;;;4.67;53.13;96524.69;5044878;28;20053;-52
2022/12/15 12:07:55;;;;;;;46.17;24.10;;;0.70;99.90;;;4.71;52.96;96514.66;5044957;28;20049;-55
2022/12/15 12:10:39;;;;;;;40.43;22.80;;;0.70;99.90;;;4.68;52.75;96505.25;5045019;28;20048;-52
2022/12/15 12:13:36;;;;;;;44.27;20.93;;;0.70;99.90;;;4.68;52.74;96497.34;5039099;28;20050;-55
2022/12/15 12:16:41;;;;;;;43.87;23.37;;;0.80;99.90;;;4.69;52.82;96488.47;5036682;28;20256;-51
2022/12/15 12:19:43;;;;;;;37.87;19.93;;;0.80;99.90;;;4.74;52.61;96482.72;5038548;28;20048;-53
2022/12/15 12:22:30;;;;;;;41.60;20.57;;;0.80;99.90;;;4.80;52.67;96495.28;5040621;28;20083;-52
2022/12/15 12:25:24;;;;;;;47.20;20.63;;;0.80;99.90;;;4.75;52.56;96484.38;5035700;28;20103;-55
2022/12/15 12:27:59;;;;;;;52.23;21.87;;;0.80;99.90;;;4.78;52.52;96491.16;5045072;28;20038;-54
2022/12/15 12:30:42;;;;;;;45.10;20.57;;;0.80;99.90;;;4.75;52.75;96471.22;5043328;28;20252;-50
2022/12/15 12:33:43;;;;;;;45.77;22.03;;;0.80;99.90;;;4.74;52.34;96475.63;5028411;28;20325;-51
2022/12/15 12:36:15;;;;;;;42.17;21.73;;;0.80;99.90;;;4.85;52.25;96482.47;5036816;28;20045;-51
2022/12/15 12:38:54;;;;;;;43.87;22.67;;;0.90;99.90;;;4.86;52.65;96478.84;5043515;28;20045;-51
2022/12/15 12:42:13;;;;;;;64.40;27.40;;;1.00;99.90;;;4.87;52.46;96477.06;5043106;28;20071;-54
2022/12/15 12:44:41;;;;;;;37.50;19.37;;;1.00;99.90;;;4.99;52.22;96480.28;5027005;28;20049;-54
2022/12/15 12:47:30;;;;;;;39.67;18.33;;;1.10;99.90;;;4.99;52.40;96480.28;5043208;28;20053;-54
2022/12/15 12:50:17;;;;;;;29.00;16.10;;;1.20;99.90;;;5.07;52.68;96483.78;5036522;28;20255;-53
2022/12/15 12:52:56;;;;;;;37.37;17.17;;;1.20;99.70;;;5.08;52.23;96482.81;5042157;28;20071;-50
2022/12/15 12:55:29;;;;;;;34.53;18.67;;;1.40;99.20;;;5.11;51.85;96484.28;5043255;28;20041;-54
2022/12/15 12:57:57;;;;;;;32.57;17.03;;;1.30;99.50;;;5.15;52.48;96474.25;5043929;28;20045;-53
2022/12/15 13:00:31;;;;;;;36.03;18.87;;;1.30;99.80;;;5.20;52.29;96464.09;5026322;28;20063;-50
2022/12/15 13:03:11;;;;;;;39.60;19.88;;;1.40;99.60;;;5.21;52.21;96471.00;5042727;28;20045;-51
2022/12/15 13:05:40;;;;;;;40.33;19.67;;;1.40;99.50;;;5.23;52.42;96469.84;5043975;28;20051;-53
2022/12/15 13:08:08;;;;;;;50.93;25.00;;;1.40;99.60;;;5.24;52.37;96463.59;5042938;28;20049;-52
2022/12/15 13:10:46;;;;;;;41.87;21.87;;;1.40;99.90;;;5.28;51.85;96458.84;5044159;28;20346;-53
2022/12/15 13:13:32;;;;;;;37.87;17.60;;;1.40;99.90;;;5.31;52.19;96450.59;5043008;28;20397;-52
2022/12/15 13:16:21;;;;;;;34.17;19.87;;;1.40;99.40;;;5.32;52.35;96442.53;5036717;28;20045;-52
2022/12/15 13:19:05;;;;;;;36.60;20.13;;;1.40;99.60;;;5.33;52.08;96444.19;5042609;28;20299;-54
2022/12/15 13:21:45;;;;;;;30.50;18.42;;;1.50;99.90;;;5.32;52.02;96439.06;5042369;28;20045;-52
2022/12/15 13:24:46;;;;;;;32.23;16.30;;;1.40;99.80;;;5.31;52.05;96432.13;5037965;28;20225;-53
2022/12/15 13:27:18;;;;;;;42.73;19.53;;;1.40;99.20;;;5.35;51.82;96422.94;5036928;28;20056;-51
2022/12/15 13:30:06;;;;;;;38.07;20.70;;;1.40;99.90;;;5.31;51.72;96417.13;5042214;28;20084;-55